sensor_id;sensor_type;location;lat;lon;timestamp;P1;durP1;ratioP1;P2;durP2;ratioP2
58565;SDS011;47788;46.172;-1.158;2022-08-19T00:00:19;14.25;;;4.30;;
58565;SDS011;47788;46.172;-1.158;2022-08-19T00:02:45;19.20;;;5.00;;
58565;SDS011;47788;46.172;-1.158;2022-08-19T00:05:12;16.90;;;3.97;;
58565;SDS011;47788;46.172;-1.158;2022-08-19T00:07:39;17.20;;;3.38;;
58565;SDS011;47788;46.172;-1.158;2022-08-19T00:10:06;14.40;;;3.20;;
58565;SDS011;47788;46.172;-1.158;2022-08-19T00:12:33;15.02;;;4.65;;
58565;SDS011;47788;46.172;-1.158;2022-08-19T00:14:59;11.15;;;2.75;;
58565;SDS011;47788;46.172;-1.158;2022-08-19T00:17:25;12.27;;;2.90;;
58565;SDS011;47788;46.172;-1.158;2022-08-19T00:19:51;14.27;;;3.45;;
58565;SDS011;47788;46.172;-1.158;2022-08-19T00:22:17;10.27;;;2.70;;
58565;SDS011;47788;46.172;-1.158;2022-08-19T00:24:45;11.90;;;2.50;;
58565;SDS011;47788;46.172;-1.158;2022-08-19T00:27:11;11.95;;;3.03;;
58565;SDS011;47788;46.172;-1.158;2022-08-19T00:29:37;12.30;;;3.55;;
58565;SDS011;47788;46.172;-1.158;2022-08-19T00:32:04;10.73;;;3.50;;
58565;SDS011;47788;46.172;-1.158;2022-08-19T00:34:30;12.07;;;3.15;;
58565;SDS011;47788;46.172;-1.158;2022-08-19T00:36:55;15.20;;;3.35;;
58565;SDS011;47788;46.172;-1.158;2022-08-19T00:39:22;13.15;;;3.38;;
58565;SDS011;47788;46.172;-1.158;2022-08-19T00:41:48;11.02;;;2.90;;
58565;SDS011;47788;46.172;-1.158;2022-08-19T00:44:21;12.63;;;3.30;;
58565;SDS011;47788;46.172;-1.158;2022-08-19T00:46:50;8.35;;;3.05;;
58565;SDS011;47788;46.172;-1.158;2022-08-19T00:51:50;10.82;;;3.00;;
58565;SDS011;47788;46.172;-1.158;2022-08-19T00:54:20;13.65;;;4.10;;
58565;SDS011;47788;46.172;-1.158;2022-08-19T00:56:46;15.18;;;4.05;;
58565;SDS011;47788;46.172;-1.158;2022-08-19T00:59:13;14.48;;;3.38;;
58565;SDS011;47788;46.172;-1.158;2022-08-19T01:01:41;11.63;;;3.20;;
58565;SDS011;47788;46.172;-1.158;2022-08-19T01:04:09;9.75;;;3.47;;
58565;SDS011;47788;46.172;-1.158;2022-08-19T01:06:35;12.30;;;3.50;;
58565;SDS011;47788;46.172;-1.158;2022-08-19T01:09:03;13.93;;;3.28;;
58565;SDS011;47788;46.172;-1.158;2022-08-19T01:11:30;15.80;;;4.90;;
58565;SDS011;47788;46.172;-1.158;2022-08-19T01:13:58;11.55;;;3.00;;
58565;SDS011;47788;46.172;-1.158;2022-08-19T01:16:25;15.80;;;3.20;;
58565;SDS011;47788;46.172;-1.158;2022-08-19T01:18:54;10.52;;;3.10;;
58565;SDS011;47788;46.172;-1.158;2022-08-19T01:23:49;15.52;;;3.30;;
58565;SDS011;47788;46.172;-1.158;2022-08-19T01:26:17;12.40;;;3.65;;
58565;SDS011;47788;46.172;-1.158;2022-08-19T01:28:46;13.82;;;3.13;;
58565;SDS011;47788;46.172;-1.158;2022-08-19T01:31:15;15.25;;;3.22;;
58565;SDS011;47788;46.172;-1.158;2022-08-19T01:33:43;10.77;;;3.25;;
58565;SDS011;47788;46.172;-1.158;2022-08-19T01:36:11;14.73;;;3.55;;
58565;SDS011;47788;46.172;-1.158;2022-08-19T01:38:40;11.07;;;3.17;;
58565;SDS011;47788;46.172;-1.158;2022-08-19T01:41:09;13.32;;;3.10;;
58565;SDS011;47788;46.172;-1.158;2022-08-19T01:43:36;11.77;;;3.40;;
58565;SDS011;47788;46.172;-1.158;2022-08-19T01:46:03;10.00;;;2.80;;
58565;SDS011;47788;46.172;-1.158;2022-08-19T01:48:36;14.57;;;3.97;;
58565;SDS011;47788;46.172;-1.158;2022-08-19T01:51:03;10.82;;;3.40;;
58565;SDS011;47788;46.172;-1.158;2022-08-19T01:53:29;9.80;;;3.47;;
58565;SDS011;47788;46.172;-1.158;2022-08-19T01:55:55;11.60;;;3.25;;
58565;SDS011;47788;46.172;-1.158;2022-08-19T01:58:22;11.27;;;2.80;;
58565;SDS011;47788;46.172;-1.158;2022-08-19T02:00:54;9.85;;;3.13;;
58565;SDS011;47788;46.172;-1.158;2022-08-19T02:03:19;9.82;;;3.08;;
58565;SDS011;47788;46.172;-1.158;2022-08-19T02:05:45;10.80;;;3.33;;
58565;SDS011;47788;46.172;-1.158;2022-08-19T02:08:11;7.50;;;2.63;;
58565;SDS011;47788;46.172;-1.158;2022-08-19T02:10:41;10.90;;;2.80;;
58565;SDS011;47788;46.172;-1.158;2022-08-19T02:13:08;7.88;;;2.80;;
58565;SDS011;47788;46.172;-1.158;2022-08-19T02:15:34;13.60;;;3.10;;
58565;SDS011;47788;46.172;-1.158;2022-08-19T02:18:00;10.40;;;2.97;;
58565;SDS011;47788;46.172;-1.158;2022-08-19T02:20:26;10.90;;;3.75;;
58565;SDS011;47788;46.172;-1.158;2022-08-19T02:22:51;5.57;;;2.05;;
58565;SDS011;47788;46.172;-1.158;2022-08-19T02:25:17;6.10;;;2.30;;
58565;SDS011;47788;46.172;-1.158;2022-08-19T02:27:43;6.88;;;2.67;;
58565;SDS011;47788;46.172;-1.158;2022-08-19T02:30:11;9.15;;;2.42;;
58565;SDS011;47788;46.172;-1.158;2022-08-19T02:32:40;7.00;;;2.67;;
58565;SDS011;47788;46.172;-1.158;2022-08-19T02:35:08;7.60;;;2.17;;
58565;SDS011;47788;46.172;-1.158;2022-08-19T02:37:34;7.70;;;2.20;;
58565;SDS011;47788;46.172;-1.158;2022-08-19T02:42:44;3.95;;;2.20;;
58565;SDS011;47788;46.172;-1.158;2022-08-19T02:45:11;10.38;;;2.55;;
58565;SDS011;47788;46.172;-1.158;2022-08-19T02:47:38;5.35;;;2.00;;
58565;SDS011;47788;46.172;-1.158;2022-08-19T02:50:04;8.30;;;1.63;;
58565;SDS011;47788;46.172;-1.158;2022-08-19T02:52:31;6.28;;;1.42;;
58565;SDS011;47788;46.172;-1.158;2022-08-19T02:54:58;3.58;;;1.48;;
58565;SDS011;47788;46.172;-1.158;2022-08-19T02:57:25;2.85;;;1.65;;
58565;SDS011;47788;46.172;-1.158;2022-08-19T02:59:51;8.80;;;1.80;;
58565;SDS011;47788;46.172;-1.158;2022-08-19T03:02:17;4.32;;;1.20;;
58565;SDS011;47788;46.172;-1.158;2022-08-19T03:04:43;4.30;;;1.30;;
58565;SDS011;47788;46.172;-1.158;2022-08-19T03:07:09;3.03;;;1.27;;
58565;SDS011;47788;46.172;-1.158;2022-08-19T03:09:38;3.75;;;1.40;;
58565;SDS011;47788;46.172;-1.158;2022-08-19T03:12:04;3.83;;;1.13;;
58565;SDS011;47788;46.172;-1.158;2022-08-19T03:14:31;2.72;;;1.15;;
58565;SDS011;47788;46.172;-1.158;2022-08-19T03:16:57;4.97;;;1.25;;
58565;SDS011;47788;46.172;-1.158;2022-08-19T03:19:23;3.47;;;1.27;;
58565;SDS011;47788;46.172;-1.158;2022-08-19T03:21:49;2.30;;;1.00;;
58565;SDS011;47788;46.172;-1.158;2022-08-19T03:24:17;5.25;;;1.42;;
58565;SDS011;47788;46.172;-1.158;2022-08-19T03:26:44;2.58;;;1.08;;
58565;SDS011;47788;46.172;-1.158;2022-08-19T03:29:12;3.08;;;1.00;;
58565;SDS011;47788;46.172;-1.158;2022-08-19T03:31:40;3.30;;;1.42;;
58565;SDS011;47788;46.172;-1.158;2022-08-19T03:34:08;2.90;;;1.42;;
58565;SDS011;47788;46.172;-1.158;2022-08-19T03:36:36;5.28;;;1.40;;
58565;SDS011;47788;46.172;-1.158;2022-08-19T03:39:03;5.22;;;1.25;;
58565;SDS011;47788;46.172;-1.158;2022-08-19T03:41:29;2.97;;;1.20;;
58565;SDS011;47788;46.172;-1.158;2022-08-19T03:43:57;3.92;;;1.10;;
58565;SDS011;47788;46.172;-1.158;2022-08-19T03:46:24;3.90;;;1.20;;
58565;SDS011;47788;46.172;-1.158;2022-08-19T03:48:53;3.83;;;1.40;;
58565;SDS011;47788;46.172;-1.158;2022-08-19T03:53:48;6.00;;;1.50;;
58565;SDS011;47788;46.172;-1.158;2022-08-19T03:56:14;3.47;;;1.23;;
58565;SDS011;47788;46.172;-1.158;2022-08-19T03:58:40;6.35;;;1.60;;
58565;SDS011;47788;46.172;-1.158;2022-08-19T04:01:09;5.18;;;1.73;;
58565;SDS011;47788;46.172;-1.158;2022-08-19T04:03:37;3.90;;;1.60;;
58565;SDS011;47788;46.172;-1.158;2022-08-19T04:06:17;4.10;;;1.67;;
58565;SDS011;47788;46.172;-1.158;2022-08-19T04:08:49;7.53;;;1.48;;
58565;SDS011;47788;46.172;-1.158;2022-08-19T04:11:17;2.92;;;1.30;;
58565;SDS011;47788;46.172;-1.158;2022-08-19T04:13:48;6.65;;;1.20;;
58565;SDS011;47788;46.172;-1.158;2022-08-19T04:16:16;4.30;;;1.48;;
58565;SDS011;47788;46.172;-1.158;2022-08-19T04:18:42;4.38;;;1.30;;
58565;SDS011;47788;46.172;-1.158;2022-08-19T04:21:14;6.57;;;1.73;;
58565;SDS011;47788;46.172;-1.158;2022-08-19T04:23:44;4.20;;;1.40;;
58565;SDS011;47788;46.172;-1.158;2022-08-19T04:26:18;3.13;;;1.33;;
58565;SDS011;47788;46.172;-1.158;2022-08-19T04:28:52;4.93;;;1.88;;
58565;SDS011;47788;46.172;-1.158;2022-08-19T04:31:20;3.45;;;1.73;;
58565;SDS011;47788;46.172;-1.158;2022-08-19T04:33:51;5.60;;;1.60;;
58565;SDS011;47788;46.172;-1.158;2022-08-19T04:36:21;3.90;;;1.50;;
58565;SDS011;47788;46.172;-1.158;2022-08-19T04:38:49;3.97;;;1.40;;
58565;SDS011;47788;46.172;-1.158;2022-08-19T04:41:17;2.35;;;1.10;;
58565;SDS011;47788;46.172;-1.158;2022-08-19T04:44:02;2.00;;;0.93;;
58565;SDS011;47788;46.172;-1.158;2022-08-19T04:46:28;1.80;;;0.80;;
58565;SDS011;47788;46.172;-1.158;2022-08-19T04:48:55;2.55;;;0.98;;
58565;SDS011;47788;46.172;-1.158;2022-08-19T04:51:22;3.42;;;1.73;;
58565;SDS011;47788;46.172;-1.158;2022-08-19T04:53:48;3.08;;;1.25;;
58565;SDS011;47788;46.172;-1.158;2022-08-19T04:56:14;3.00;;;1.30;;
58565;SDS011;47788;46.172;-1.158;2022-08-19T04:58:42;2.55;;;0.90;;
58565;SDS011;47788;46.172;-1.158;2022-08-19T05:01:13;2.03;;;0.70;;
58565;SDS011;47788;46.172;-1.158;2022-08-19T05:03:42;2.90;;;0.73;;
58565;SDS011;47788;46.172;-1.158;2022-08-19T05:06:09;4.35;;;1.10;;
58565;SDS011;47788;46.172;-1.158;2022-08-19T05:08:38;2.70;;;0.90;;
58565;SDS011;47788;46.172;-1.158;2022-08-19T05:11:18;3.03;;;1.00;;
58565;SDS011;47788;46.172;-1.158;2022-08-19T05:13:46;2.03;;;0.90;;
58565;SDS011;47788;46.172;-1.158;2022-08-19T05:16:13;2.03;;;1.20;;
58565;SDS011;47788;46.172;-1.158;2022-08-19T05:18:41;3.78;;;1.40;;
58565;SDS011;47788;46.172;-1.158;2022-08-19T05:21:26;4.15;;;1.77;;
58565;SDS011;47788;46.172;-1.158;2022-08-19T05:24:11;3.05;;;1.45;;
58565;SDS011;47788;46.172;-1.158;2022-08-19T05:26:40;2.63;;;1.10;;
58565;SDS011;47788;46.172;-1.158;2022-08-19T05:29:08;3.40;;;0.90;;
58565;SDS011;47788;46.172;-1.158;2022-08-19T05:31:34;3.88;;;1.20;;
58565;SDS011;47788;46.172;-1.158;2022-08-19T05:34:00;7.05;;;1.58;;
58565;SDS011;47788;46.172;-1.158;2022-08-19T05:36:28;4.82;;;1.05;;
58565;SDS011;47788;46.172;-1.158;2022-08-19T05:38:59;2.35;;;0.85;;
58565;SDS011;47788;46.172;-1.158;2022-08-19T05:41:25;2.38;;;1.00;;
58565;SDS011;47788;46.172;-1.158;2022-08-19T05:44:00;5.20;;;1.38;;
58565;SDS011;47788;46.172;-1.158;2022-08-19T05:46:27;3.28;;;0.90;;
58565;SDS011;47788;46.172;-1.158;2022-08-19T05:48:53;2.40;;;0.70;;
58565;SDS011;47788;46.172;-1.158;2022-08-19T05:51:21;3.33;;;1.58;;
58565;SDS011;47788;46.172;-1.158;2022-08-19T05:53:48;3.83;;;1.27;;
58565;SDS011;47788;46.172;-1.158;2022-08-19T05:56:15;2.33;;;1.13;;
58565;SDS011;47788;46.172;-1.158;2022-08-19T05:58:42;2.17;;;1.17;;
58565;SDS011;47788;46.172;-1.158;2022-08-19T06:01:10;2.47;;;1.10;;
58565;SDS011;47788;46.172;-1.158;2022-08-19T06:03:38;2.85;;;1.30;;
58565;SDS011;47788;46.172;-1.158;2022-08-19T06:06:04;3.42;;;1.40;;
58565;SDS011;47788;46.172;-1.158;2022-08-19T06:08:31;3.67;;;1.10;;
58565;SDS011;47788;46.172;-1.158;2022-08-19T06:10:58;1.35;;;0.90;;
58565;SDS011;47788;46.172;-1.158;2022-08-19T06:13:57;2.13;;;0.80;;
58565;SDS011;47788;46.172;-1.158;2022-08-19T06:16:26;1.90;;;0.77;;
58565;SDS011;47788;46.172;-1.158;2022-08-19T06:18:53;3.03;;;1.10;;
58565;SDS011;47788;46.172;-1.158;2022-08-19T06:21:20;2.72;;;0.90;;
58565;SDS011;47788;46.172;-1.158;2022-08-19T06:23:48;2.33;;;0.90;;
58565;SDS011;47788;46.172;-1.158;2022-08-19T06:26:16;2.38;;;1.30;;
58565;SDS011;47788;46.172;-1.158;2022-08-19T06:28:43;3.42;;;0.95;;
58565;SDS011;47788;46.172;-1.158;2022-08-19T06:31:11;2.60;;;1.05;;
58565;SDS011;47788;46.172;-1.158;2022-08-19T06:33:42;2.53;;;1.05;;
58565;SDS011;47788;46.172;-1.158;2022-08-19T06:39:06;4.53;;;1.33;;
58565;SDS011;47788;46.172;-1.158;2022-08-19T06:41:38;3.30;;;1.00;;
58565;SDS011;47788;46.172;-1.158;2022-08-19T06:44:06;2.45;;;1.17;;
58565;SDS011;47788;46.172;-1.158;2022-08-19T06:46:32;2.08;;;1.15;;
58565;SDS011;47788;46.172;-1.158;2022-08-19T06:48:58;2.25;;;0.93;;
58565;SDS011;47788;46.172;-1.158;2022-08-19T06:51:25;4.15;;;0.95;;
58565;SDS011;47788;46.172;-1.158;2022-08-19T06:53:52;4.50;;;1.30;;
58565;SDS011;47788;46.172;-1.158;2022-08-19T06:56:21;2.75;;;0.90;;
58565;SDS011;47788;46.172;-1.158;2022-08-19T06:58:49;2.60;;;0.80;;
58565;SDS011;47788;46.172;-1.158;2022-08-19T07:01:17;1.48;;;0.50;;
58565;SDS011;47788;46.172;-1.158;2022-08-19T07:03:43;1.17;;;0.60;;
58565;SDS011;47788;46.172;-1.158;2022-08-19T07:06:12;3.60;;;0.85;;
58565;SDS011;47788;46.172;-1.158;2022-08-19T07:08:42;2.60;;;0.70;;
58565;SDS011;47788;46.172;-1.158;2022-08-19T07:11:09;2.40;;;1.00;;
58565;SDS011;47788;46.172;-1.158;2022-08-19T07:13:37;2.03;;;0.80;;
58565;SDS011;47788;46.172;-1.158;2022-08-19T07:16:05;4.38;;;0.70;;
58565;SDS011;47788;46.172;-1.158;2022-08-19T07:18:33;3.10;;;0.80;;
58565;SDS011;47788;46.172;-1.158;2022-08-19T07:21:07;2.67;;;0.90;;
58565;SDS011;47788;46.172;-1.158;2022-08-19T07:23:52;1.95;;;0.80;;
58565;SDS011;47788;46.172;-1.158;2022-08-19T07:26:20;4.47;;;1.15;;
58565;SDS011;47788;46.172;-1.158;2022-08-19T07:28:49;5.65;;;0.90;;
58565;SDS011;47788;46.172;-1.158;2022-08-19T07:31:17;3.28;;;1.10;;
58565;SDS011;47788;46.172;-1.158;2022-08-19T07:33:45;1.52;;;1.13;;
58565;SDS011;47788;46.172;-1.158;2022-08-19T07:36:13;3.00;;;1.27;;
58565;SDS011;47788;46.172;-1.158;2022-08-19T07:38:42;3.17;;;1.63;;
58565;SDS011;47788;46.172;-1.158;2022-08-19T07:41:10;2.53;;;1.35;;
58565;SDS011;47788;46.172;-1.158;2022-08-19T07:43:38;1.65;;;1.15;;
58565;SDS011;47788;46.172;-1.158;2022-08-19T07:46:05;4.03;;;1.15;;
58565;SDS011;47788;46.172;-1.158;2022-08-19T07:48:31;3.13;;;1.10;;
58565;SDS011;47788;46.172;-1.158;2022-08-19T07:51:01;3.55;;;1.27;;
58565;SDS011;47788;46.172;-1.158;2022-08-19T07:53:30;3.38;;;1.38;;
58565;SDS011;47788;46.172;-1.158;2022-08-19T07:55:57;3.88;;;1.80;;
58565;SDS011;47788;46.172;-1.158;2022-08-19T07:58:29;3.17;;;1.23;;
58565;SDS011;47788;46.172;-1.158;2022-08-19T08:00:57;3.17;;;0.88;;
58565;SDS011;47788;46.172;-1.158;2022-08-19T08:03:22;4.20;;;1.20;;
58565;SDS011;47788;46.172;-1.158;2022-08-19T08:06:09;4.32;;;1.08;;
58565;SDS011;47788;46.172;-1.158;2022-08-19T08:11:38;7.03;;;1.42;;
58565;SDS011;47788;46.172;-1.158;2022-08-19T08:14:05;5.03;;;1.50;;
58565;SDS011;47788;46.172;-1.158;2022-08-19T08:16:36;5.55;;;1.70;;
58565;SDS011;47788;46.172;-1.158;2022-08-19T08:19:04;3.40;;;1.63;;
58565;SDS011;47788;46.172;-1.158;2022-08-19T08:21:31;6.78;;;2.10;;
58565;SDS011;47788;46.172;-1.158;2022-08-19T08:23:57;7.25;;;2.03;;
58565;SDS011;47788;46.172;-1.158;2022-08-19T08:26:23;4.22;;;1.25;;
58565;SDS011;47788;46.172;-1.158;2022-08-19T08:28:50;7.13;;;1.50;;
58565;SDS011;47788;46.172;-1.158;2022-08-19T08:31:16;5.93;;;1.23;;
58565;SDS011;47788;46.172;-1.158;2022-08-19T08:33:43;4.32;;;1.10;;
58565;SDS011;47788;46.172;-1.158;2022-08-19T08:36:10;4.43;;;1.23;;
58565;SDS011;47788;46.172;-1.158;2022-08-19T08:38:39;3.20;;;0.90;;
58565;SDS011;47788;46.172;-1.158;2022-08-19T08:41:14;4.28;;;2.00;;
58565;SDS011;47788;46.172;-1.158;2022-08-19T08:43:45;4.38;;;0.90;;
58565;SDS011;47788;46.172;-1.158;2022-08-19T08:46:24;6.55;;;1.42;;
58565;SDS011;47788;46.172;-1.158;2022-08-19T08:49:20;5.50;;;0.80;;
58565;SDS011;47788;46.172;-1.158;2022-08-19T08:52:24;4.85;;;1.58;;
58565;SDS011;47788;46.172;-1.158;2022-08-19T08:54:54;4.05;;;1.52;;
58565;SDS011;47788;46.172;-1.158;2022-08-19T08:57:33;4.60;;;1.00;;
58565;SDS011;47788;46.172;-1.158;2022-08-19T09:00:04;5.40;;;1.10;;
58565;SDS011;47788;46.172;-1.158;2022-08-19T09:02:32;3.15;;;1.08;;
58565;SDS011;47788;46.172;-1.158;2022-08-19T09:04:57;5.50;;;1.42;;
58565;SDS011;47788;46.172;-1.158;2022-08-19T09:07:44;8.27;;;1.20;;
58565;SDS011;47788;46.172;-1.158;2022-08-19T09:10:38;7.95;;;1.23;;
58565;SDS011;47788;46.172;-1.158;2022-08-19T09:16:16;7.50;;;1.15;;
58565;SDS011;47788;46.172;-1.158;2022-08-19T09:18:50;7.22;;;1.58;;
58565;SDS011;47788;46.172;-1.158;2022-08-19T09:21:20;5.65;;;1.38;;
58565;SDS011;47788;46.172;-1.158;2022-08-19T09:23:50;3.35;;;0.95;;
58565;SDS011;47788;46.172;-1.158;2022-08-19T09:26:19;2.90;;;0.65;;
58565;SDS011;47788;46.172;-1.158;2022-08-19T09:28:47;3.13;;;0.70;;
58565;SDS011;47788;46.172;-1.158;2022-08-19T09:31:18;2.45;;;0.90;;
58565;SDS011;47788;46.172;-1.158;2022-08-19T09:34:04;2.92;;;0.60;;
58565;SDS011;47788;46.172;-1.158;2022-08-19T09:36:30;1.90;;;0.50;;
58565;SDS011;47788;46.172;-1.158;2022-08-19T09:39:02;2.67;;;0.73;;
58565;SDS011;47788;46.172;-1.158;2022-08-19T09:41:28;2.20;;;0.63;;
58565;SDS011;47788;46.172;-1.158;2022-08-19T09:43:55;3.40;;;0.70;;
58565;SDS011;47788;46.172;-1.158;2022-08-19T09:46:23;2.22;;;0.95;;
58565;SDS011;47788;46.172;-1.158;2022-08-19T09:48:51;3.28;;;0.90;;
58565;SDS011;47788;46.172;-1.158;2022-08-19T09:51:18;2.15;;;0.80;;
58565;SDS011;47788;46.172;-1.158;2022-08-19T09:53:50;2.22;;;0.73;;
58565;SDS011;47788;46.172;-1.158;2022-08-19T09:56:18;2.67;;;0.70;;
58565;SDS011;47788;46.172;-1.158;2022-08-19T09:58:46;3.42;;;0.90;;
58565;SDS011;47788;46.172;-1.158;2022-08-19T10:01:17;2.35;;;0.93;;
58565;SDS011;47788;46.172;-1.158;2022-08-19T10:03:46;2.25;;;0.60;;
58565;SDS011;47788;46.172;-1.158;2022-08-19T10:06:17;3.05;;;0.98;;
58565;SDS011;47788;46.172;-1.158;2022-08-19T10:08:43;2.20;;;0.50;;
58565;SDS011;47788;46.172;-1.158;2022-08-19T10:11:10;2.33;;;0.80;;
58565;SDS011;47788;46.172;-1.158;2022-08-19T10:13:35;3.30;;;0.88;;
58565;SDS011;47788;46.172;-1.158;2022-08-19T10:16:03;2.58;;;0.50;;
58565;SDS011;47788;46.172;-1.158;2022-08-19T10:18:31;2.08;;;0.77;;
58565;SDS011;47788;46.172;-1.158;2022-08-19T10:21:09;1.67;;;0.55;;
58565;SDS011;47788;46.172;-1.158;2022-08-19T10:23:36;1.73;;;0.50;;
58565;SDS011;47788;46.172;-1.158;2022-08-19T10:26:04;1.70;;;0.50;;
58565;SDS011;47788;46.172;-1.158;2022-08-19T10:28:31;2.33;;;0.88;;
58565;SDS011;47788;46.172;-1.158;2022-08-19T10:30:58;2.67;;;0.70;;
58565;SDS011;47788;46.172;-1.158;2022-08-19T10:33:27;5.50;;;0.80;;
58565;SDS011;47788;46.172;-1.158;2022-08-19T10:36:00;1.85;;;0.60;;
58565;SDS011;47788;46.172;-1.158;2022-08-19T10:38:28;4.15;;;1.02;;
58565;SDS011;47788;46.172;-1.158;2022-08-19T10:40:54;1.83;;;0.63;;
58565;SDS011;47788;46.172;-1.158;2022-08-19T10:43:20;2.25;;;0.70;;
58565;SDS011;47788;46.172;-1.158;2022-08-19T10:45:51;2.80;;;0.70;;
58565;SDS011;47788;46.172;-1.158;2022-08-19T10:48:18;4.63;;;0.98;;
58565;SDS011;47788;46.172;-1.158;2022-08-19T10:50:47;3.58;;;0.68;;
58565;SDS011;47788;46.172;-1.158;2022-08-19T10:53:31;2.85;;;1.13;;
58565;SDS011;47788;46.172;-1.158;2022-08-19T10:55:57;7.15;;;1.67;;
58565;SDS011;47788;46.172;-1.158;2022-08-19T10:58:41;6.47;;;2.10;;
58565;SDS011;47788;46.172;-1.158;2022-08-19T11:01:06;3.80;;;1.17;;
58565;SDS011;47788;46.172;-1.158;2022-08-19T11:03:32;5.70;;;1.27;;
58565;SDS011;47788;46.172;-1.158;2022-08-19T11:06:05;5.50;;;1.10;;
58565;SDS011;47788;46.172;-1.158;2022-08-19T11:08:34;3.63;;;0.70;;
58565;SDS011;47788;46.172;-1.158;2022-08-19T11:11:03;5.88;;;0.85;;
58565;SDS011;47788;46.172;-1.158;2022-08-19T11:13:31;2.92;;;1.20;;
58565;SDS011;47788;46.172;-1.158;2022-08-19T11:16:11;3.47;;;0.93;;
58565;SDS011;47788;46.172;-1.158;2022-08-19T11:18:41;2.10;;;0.63;;
58565;SDS011;47788;46.172;-1.158;2022-08-19T11:21:09;3.30;;;0.88;;
58565;SDS011;47788;46.172;-1.158;2022-08-19T11:23:42;4.22;;;1.17;;
58565;SDS011;47788;46.172;-1.158;2022-08-19T11:26:08;3.10;;;0.95;;
58565;SDS011;47788;46.172;-1.158;2022-08-19T11:28:34;2.33;;;0.93;;
58565;SDS011;47788;46.172;-1.158;2022-08-19T11:31:00;3.15;;;0.80;;
58565;SDS011;47788;46.172;-1.158;2022-08-19T11:33:28;2.80;;;1.15;;
58565;SDS011;47788;46.172;-1.158;2022-08-19T11:35:56;3.25;;;0.60;;
58565;SDS011;47788;46.172;-1.158;2022-08-19T11:38:23;2.28;;;0.90;;
58565;SDS011;47788;46.172;-1.158;2022-08-19T11:40:57;2.67;;;0.95;;
58565;SDS011;47788;46.172;-1.158;2022-08-19T11:43:24;2.28;;;0.70;;
58565;SDS011;47788;46.172;-1.158;2022-08-19T11:45:52;2.28;;;0.60;;
58565;SDS011;47788;46.172;-1.158;2022-08-19T11:48:18;1.30;;;0.65;;
58565;SDS011;47788;46.172;-1.158;2022-08-19T11:50:50;4.63;;;0.77;;
58565;SDS011;47788;46.172;-1.158;2022-08-19T11:53:17;13.57;;;1.20;;
58565;SDS011;47788;46.172;-1.158;2022-08-19T11:55:45;2.13;;;0.70;;
58565;SDS011;47788;46.172;-1.158;2022-08-19T11:58:11;5.40;;;0.85;;
58565;SDS011;47788;46.172;-1.158;2022-08-19T12:00:38;2.90;;;0.90;;
58565;SDS011;47788;46.172;-1.158;2022-08-19T12:03:05;2.25;;;0.90;;
58565;SDS011;47788;46.172;-1.158;2022-08-19T12:05:30;3.58;;;0.77;;
58565;SDS011;47788;46.172;-1.158;2022-08-19T12:07:56;4.97;;;0.95;;
58565;SDS011;47788;46.172;-1.158;2022-08-19T12:10:22;6.55;;;1.05;;
58565;SDS011;47788;46.172;-1.158;2022-08-19T12:12:49;3.50;;;0.90;;
58565;SDS011;47788;46.172;-1.158;2022-08-19T12:15:15;4.13;;;1.35;;
58565;SDS011;47788;46.172;-1.158;2022-08-19T12:17:41;4.57;;;0.93;;
58565;SDS011;47788;46.172;-1.158;2022-08-19T12:20:08;5.28;;;0.82;;
58565;SDS011;47788;46.172;-1.158;2022-08-19T12:22:36;4.60;;;0.82;;
58565;SDS011;47788;46.172;-1.158;2022-08-19T12:25:02;3.88;;;1.30;;
58565;SDS011;47788;46.172;-1.158;2022-08-19T12:27:30;3.92;;;0.90;;
58565;SDS011;47788;46.172;-1.158;2022-08-19T12:29:56;4.65;;;0.65;;
58565;SDS011;47788;46.172;-1.158;2022-08-19T12:32:22;2.00;;;0.63;;
58565;SDS011;47788;46.172;-1.158;2022-08-19T12:34:49;4.05;;;0.82;;
58565;SDS011;47788;46.172;-1.158;2022-08-19T12:37:15;4.28;;;0.60;;
58565;SDS011;47788;46.172;-1.158;2022-08-19T12:39:41;1.33;;;0.57;;
58565;SDS011;47788;46.172;-1.158;2022-08-19T12:42:08;2.58;;;0.68;;
58565;SDS011;47788;46.172;-1.158;2022-08-19T12:44:37;2.95;;;0.98;;
58565;SDS011;47788;46.172;-1.158;2022-08-19T12:47:04;2.42;;;0.57;;
58565;SDS011;47788;46.172;-1.158;2022-08-19T12:49:31;5.05;;;0.95;;
58565;SDS011;47788;46.172;-1.158;2022-08-19T12:51:59;3.05;;;0.80;;
58565;SDS011;47788;46.172;-1.158;2022-08-19T12:54:25;2.20;;;0.70;;
58565;SDS011;47788;46.172;-1.158;2022-08-19T12:56:51;5.63;;;0.70;;
58565;SDS011;47788;46.172;-1.158;2022-08-19T12:59:17;2.97;;;0.90;;
58565;SDS011;47788;46.172;-1.158;2022-08-19T13:01:44;4.07;;;1.02;;
58565;SDS011;47788;46.172;-1.158;2022-08-19T13:04:10;3.75;;;0.75;;
58565;SDS011;47788;46.172;-1.158;2022-08-19T13:06:36;2.75;;;0.85;;
58565;SDS011;47788;46.172;-1.158;2022-08-19T13:09:02;3.13;;;0.90;;
58565;SDS011;47788;46.172;-1.158;2022-08-19T13:11:29;4.68;;;0.70;;
58565;SDS011;47788;46.172;-1.158;2022-08-19T13:14:00;4.93;;;0.52;;
58565;SDS011;47788;46.172;-1.158;2022-08-19T13:16:27;3.88;;;0.50;;
58565;SDS011;47788;46.172;-1.158;2022-08-19T13:18:53;2.47;;;0.50;;
58565;SDS011;47788;46.172;-1.158;2022-08-19T13:21:21;3.25;;;0.43;;
58565;SDS011;47788;46.172;-1.158;2022-08-19T13:23:49;2.58;;;0.45;;
58565;SDS011;47788;46.172;-1.158;2022-08-19T13:26:15;0.95;;;0.35;;
58565;SDS011;47788;46.172;-1.158;2022-08-19T13:28:42;2.40;;;0.55;;
58565;SDS011;47788;46.172;-1.158;2022-08-19T13:31:28;3.90;;;0.75;;
58565;SDS011;47788;46.172;-1.158;2022-08-19T13:34:14;2.95;;;0.40;;
58565;SDS011;47788;46.172;-1.158;2022-08-19T13:36:41;9.13;;;0.65;;
58565;SDS011;47788;46.172;-1.158;2022-08-19T13:39:07;3.42;;;0.50;;
58565;SDS011;47788;46.172;-1.158;2022-08-19T13:41:34;1.58;;;0.38;;
58565;SDS011;47788;46.172;-1.158;2022-08-19T13:44:01;3.47;;;0.65;;
58565;SDS011;47788;46.172;-1.158;2022-08-19T13:46:27;2.03;;;0.57;;
58565;SDS011;47788;46.172;-1.158;2022-08-19T13:48:54;2.67;;;0.40;;
58565;SDS011;47788;46.172;-1.158;2022-08-19T13:51:21;2.38;;;0.70;;
58565;SDS011;47788;46.172;-1.158;2022-08-19T13:53:46;5.60;;;0.50;;
58565;SDS011;47788;46.172;-1.158;2022-08-19T13:56:13;2.78;;;0.50;;
58565;SDS011;47788;46.172;-1.158;2022-08-19T13:58:41;7.32;;;0.68;;
58565;SDS011;47788;46.172;-1.158;2022-08-19T14:01:07;3.90;;;0.50;;
58565;SDS011;47788;46.172;-1.158;2022-08-19T14:03:34;4.00;;;0.40;;
58565;SDS011;47788;46.172;-1.158;2022-08-19T14:06:00;11.93;;;0.60;;
58565;SDS011;47788;46.172;-1.158;2022-08-19T14:08:27;2.95;;;0.40;;
58565;SDS011;47788;46.172;-1.158;2022-08-19T14:10:56;2.83;;;0.20;;
58565;SDS011;47788;46.172;-1.158;2022-08-19T14:13:22;2.10;;;0.47;;
58565;SDS011;47788;46.172;-1.158;2022-08-19T14:15:49;2.05;;;0.40;;
58565;SDS011;47788;46.172;-1.158;2022-08-19T14:18:16;1.83;;;0.30;;
58565;SDS011;47788;46.172;-1.158;2022-08-19T14:20:42;2.60;;;0.60;;
58565;SDS011;47788;46.172;-1.158;2022-08-19T14:23:09;2.78;;;0.40;;
58565;SDS011;47788;46.172;-1.158;2022-08-19T14:25:37;2.70;;;0.50;;
58565;SDS011;47788;46.172;-1.158;2022-08-19T14:28:03;2.25;;;0.40;;
58565;SDS011;47788;46.172;-1.158;2022-08-19T14:30:30;6.03;;;0.52;;
58565;SDS011;47788;46.172;-1.158;2022-08-19T14:32:57;1.35;;;0.60;;
58565;SDS011;47788;46.172;-1.158;2022-08-19T14:35:24;1.15;;;0.30;;
58565;SDS011;47788;46.172;-1.158;2022-08-19T14:37:52;2.83;;;0.40;;
58565;SDS011;47788;46.172;-1.158;2022-08-19T14:40:23;1.17;;;0.30;;
58565;SDS011;47788;46.172;-1.158;2022-08-19T14:42:53;2.63;;;0.40;;
58565;SDS011;47788;46.172;-1.158;2022-08-19T14:45:25;5.90;;;0.55;;
58565;SDS011;47788;46.172;-1.158;2022-08-19T14:47:52;2.35;;;0.52;;
58565;SDS011;47788;46.172;-1.158;2022-08-19T14:50:18;4.18;;;0.40;;
58565;SDS011;47788;46.172;-1.158;2022-08-19T14:52:48;5.03;;;0.70;;
58565;SDS011;47788;46.172;-1.158;2022-08-19T14:55:15;1.75;;;0.40;;
58565;SDS011;47788;46.172;-1.158;2022-08-19T14:57:42;1.92;;;0.40;;
58565;SDS011;47788;46.172;-1.158;2022-08-19T15:00:09;1.90;;;0.38;;